Shana Des Slops — FFZR — position and weather

sailwx.info

Track history (hours):
 
Tides and Currents Weather Stations Pressure Air Temp Water Temp Dewpoint Dewpoint Depression Visibility Wind Speed Wind Dir Waves Ship Positions

Shana Des Slops

Last reported at 2016-May-28 05:16 UTC. Time now 2016-May-28 08:00 UTC.
Position N 43°14' E 004°30'.

Length 47 m; draft 3.2 m.

Type: Ship. MMSI: 228003800.

Date/timePositionNaut miles runAvg speedWind from/ knotsBaromVisibWave heightAir tempDewpointWater temp
2016-May-28 05:16N 43°14' E 004°30'16 9.3
2016-May-28 03:32N 43°19' E 004°52'8 8.3
2016-May-28 02:33N 43°24' E 004°60'0 0.0
2016-May-28 01:31N 43°24' E 004°60'0 0.0
2016-May-28 00:31N 43°24' E 004°60'0 0.0
2016-May-27 23:31N 43°24' E 004°60'0 0.0
2016-May-27 22:31N 43°24' E 004°60'0 0.0
2016-May-27 21:31N 43°24' E 004°60'0 0.0
2016-May-27 20:32N 43°24' E 004°60'0 0.0
2016-May-27 19:31N 43°24' E 004°60'0 0.0
2016-May-27 18:31N 43°24' E 004°60'0 0.0
2016-May-27 17:31N 43°24' E 004°60'0 0.0
2016-May-27 16:31N 43°24' E 004°60'0 0.0
2016-May-27 15:31N 43°24' E 004°60'0 0.0
2016-May-27 14:31N 43°24' E 004°60'0 0.0
2016-May-27 13:31N 43°24' E 004°60'2 2.4
2016-May-27 12:34N 43°24' E 004°57'0 0.0
2016-May-27 11:33N 43°24' E 004°57'2 1.5
2016-May-27 10:33N 43°24' E 004°59'1 1.1
2016-May-27 09:32N 43°24' E 004°60'0 0.0
2016-May-27 08:32N 43°24' E 004°60'0 0.0
2016-May-27 07:32N 43°24' E 004°60'0 0.0
2016-May-27 06:32N 43°24' E 004°60'0 0.0
2016-May-27 05:31N 43°24' E 004°60'0 0.0
2016-May-27 04:31N 43°24' E 004°60'0 0.0
2016-May-27 03:31N 43°24' E 004°60'0 0.0
2016-May-27 02:31N 43°24' E 004°60'0 0.0
2016-May-27 01:31N 43°24' E 004°60'0 0.0
2016-May-27 00:31N 43°24' E 004°60'0 0.0
2016-May-26 23:31N 43°24' E 004°60'0 0.0
2016-May-26 22:31N 43°24' E 004°60'0 0.0
2016-May-26 21:31N 43°24' E 004°60'0 0.0
2016-May-26 20:31N 43°24' E 004°60'0 0.0
2016-May-26 19:31N 43°24' E 004°60'0 0.0
2016-May-26 18:31N 43°24' E 004°60'0 0.0
2016-May-26 17:28N 43°24' E 004°60'0 0.0
2016-May-26 16:31N 43°24' E 004°60'0 0.0
2016-May-26 15:31N 43°24' E 004°60'0 0.0
2016-May-26 14:31N 43°24' E 004°60'0 0.0
2016-May-26 13:31N 43°24' E 004°60'0 0.0
2016-May-26 12:31N 43°24' E 004°60'0 0.0
2016-May-26 11:31N 43°24' E 004°60'0 0.0
2016-May-26 10:31N 43°24' E 004°60'0 0.0
2016-May-26 09:31N 43°24' E 004°60'0 0.0
2016-May-26 08:31N 43°24' E 004°60'0 0.0
2016-May-26 07:31N 43°24' E 004°60'0 0.0
2016-May-26 06:31N 43°24' E 004°60'0 0.0
2016-May-26 05:31N 43°24' E 004°60'0 0.0
2016-May-26 04:31N 43°24' E 004°60'0 0.0
2016-May-26 03:31N 43°24' E 004°60'0 0.0
2016-May-26 02:31N 43°24' E 004°60'0 0.0
2016-May-26 01:31N 43°24' E 004°60'0 0.0
2016-May-26 00:31N 43°24' E 004°60'0 0.0
2016-May-25 23:31N 43°24' E 004°60'0 0.0
2016-May-25 22:31N 43°24' E 004°60'0 0.0
2016-May-25 21:28N 43°24' E 004°60'0 0.0
2016-May-25 20:28N 43°24' E 004°60'0 0.0
2016-May-25 19:28N 43°24' E 004°60'0 0.0
2016-May-25 18:28N 43°24' E 004°60'0 0.0
2016-May-25 17:28N 43°24' E 004°60'0 0.0
2016-May-25 16:28N 43°24' E 004°60'0 0.0
2016-May-25 15:31N 43°24' E 004°60'0 0.0
2016-May-25 14:31N 43°24' E 004°60'1 0.7
2016-May-25 13:33N 43°24' E 004°59'8 7.8
2016-May-25 12:33N 43°17' E 005°05'5 5.5
2016-May-25 11:33N 43°14' E 005°11'2 2.4
2016-May-25 10:33N 43°14' E 005°08'9 8.7
2016-May-25 09:33N 43°20' E 004°59'4 3.8
2016-May-25 08:32N 43°24' E 004°60'0 0.0
2016-May-25 07:32N 43°24' E 004°60'0 0.0
2016-May-25 06:32N 43°24' E 004°60'0 0.0
2016-May-25 05:32N 43°24' E 004°60'0 0.0
2016-May-25 04:32N 43°24' E 004°60'0 0.0
2016-May-25 03:32N 43°24' E 004°60'0 0.0
2016-May-25 02:32N 43°24' E 004°60'0 0.0
2016-May-25 01:32N 43°24' E 004°60'0 0.0
2016-May-25 00:32N 43°24' E 004°60'0 0.0
2016-May-24 23:29N 43°24' E 004°60'0 0.0
2016-May-24 22:29N 43°24' E 004°60'0 0.0
2016-May-24 21:32N 43°24' E 004°60'0 0.0
2016-May-24 20:32N 43°24' E 004°60'0 0.0
2016-May-24 19:32N 43°24' E 004°60'0 0.0
2016-May-24 18:32N 43°24' E 004°60'0 0.0
2016-May-24 17:32N 43°24' E 004°60'0 0.0
2016-May-24 16:32N 43°24' E 004°60'0 0.0
2016-May-24 15:32N 43°24' E 004°60'0 0.0
2016-May-24 14:32N 43°24' E 004°60'0 0.0
2016-May-24 13:32N 43°24' E 004°60'0 0.0
2016-May-24 12:32N 43°24' E 004°60'0 0.0
2016-May-24 11:32N 43°24' E 004°60'2 2.2
2016-May-24 10:33N 43°24' E 004°57'0 0.0
2016-May-24 09:33N 43°24' E 004°57'5 1.8
2016-May-24 06:33N 43°26' E 004°50'7 7.0
2016-May-24 05:33N 43°24' E 004°59'1 0.7
2016-May-24 04:31N 43°24' E 004°60'0 0.0
2016-May-24 03:31N 43°24' E 004°60'0 0.0
2016-May-24 02:31N 43°24' E 004°60'0 0.0
2016-May-24 01:31N 43°24' E 004°60'0 0.0
2016-May-24 00:31N 43°24' E 004°60'0 0.0
2016-May-23 23:27N 43°24' E 004°60'0 0.0
2016-May-23 22:31N 43°24' E 004°60'0 0.0
2016-May-23 21:31N 43°24' E 004°60'0 0.0
2016-May-23 20:31N 43°24' E 004°60'0 0.0
2016-May-23 19:33N 43°24' E 004°60'0 0.0
2016-May-23 18:33N 43°24' E 004°60'0 0.0
2016-May-23 17:33N 43°24' E 004°60'0 0.0
2016-May-23 16:33N 43°24' E 004°60'0 0.0
2016-May-23 15:33N 43°24' E 004°60'0 0.0
2016-May-23 14:33N 43°24' E 004°60'0 0.0
2016-May-23 13:33N 43°24' E 004°60'0 0.0
2016-May-23 12:33N 43°24' E 004°60'0 0.0
2016-May-23 11:33N 43°24' E 004°60'0 0.0
2016-May-23 10:33N 43°24' E 004°60'0 0.0
2016-May-23 09:32N 43°24' E 004°60'0 0.0
2016-May-23 08:33N 43°24' E 004°60'0 0.0
2016-May-23 07:32N 43°24' E 004°60'0 0.0
2016-May-23 06:31N 43°24' E 004°60'0 0.0
2016-May-23 05:31N 43°24' E 004°60'0 0.0
2016-May-23 04:32N 43°24' E 004°60'0 0.0
2016-May-23 03:32N 43°24' E 004°60'0 0.0
2016-May-23 02:32N 43°24' E 004°60'0 0.0
2016-May-23 01:32N 43°24' E 004°60'0 0.0
2016-May-23 00:32N 43°24' E 004°60'0 0.0
2016-May-22 23:32N 43°24' E 004°60'0 0.0
2016-May-22 22:32N 43°24' E 004°60'0 0.0
2016-May-22 21:32N 43°24' E 004°60'0 0.0
2016-May-22 20:32N 43°24' E 004°60'0 0.0
2016-May-22 19:32N 43°24' E 004°60'0 0.0
2016-May-22 18:32N 43°24' E 004°60'0 0.0
2016-May-22 17:32N 43°24' E 004°60'0 0.0
2016-May-22 16:32N 43°24' E 004°60'0 0.0
2016-May-22 15:32N 43°24' E 004°60'0 0.0
2016-May-22 14:32N 43°24' E 004°60'0 0.0
2016-May-22 13:32N 43°24' E 004°60'0 0.0
2016-May-22 12:32N 43°24' E 004°60'0 0.0
2016-May-22 11:32N 43°24' E 004°60'0 0.0
2016-May-22 10:32N 43°24' E 004°60'0 0.0
2016-May-22 09:32N 43°24' E 004°60'0 0.0
2016-May-22 08:32N 43°24' E 004°60'1 1.4
2016-May-22 07:34N 43°24' E 004°58'4 1.0
2016-May-22 03:27N 43°25' E 004°53'5 5.5
2016-May-22 02:33N 43°24' E 004°60'0 0.0
2016-May-22 01:33N 43°24' E 004°60'0 0.0
2016-May-22 00:30N 43°24' E 004°60'0 0.0
2016-May-21 23:27N 43°24' E 004°60'0 0.0
2016-May-21 22:33N 43°24' E 004°60'0 0.0
2016-May-21 21:33N 43°24' E 004°60'0 0.0
2016-May-21 20:33N 43°24' E 004°60'0 0.0
2016-May-21 19:33N 43°24' E 004°60'0 0.0
2016-May-21 18:33N 43°24' E 004°60'0 0.0
2016-May-21 17:33N 43°24' E 004°60'0 0.0
2016-May-21 16:33N 43°24' E 004°60'0 0.0
2016-May-21 15:33N 43°24' E 004°60'0 0.0
2016-May-21 14:21N 43°24' E 004°60'0 0.0
2016-May-21 13:33N 43°24' E 004°60'0 0.0
2016-May-21 12:32N 43°24' E 004°60'0 0.0
2016-May-21 11:32N 43°24' E 004°60'0 0.0
2016-May-21 10:32N 43°24' E 004°60'0 0.0
2016-May-21 09:29N 43°24' E 004°60'0 0.0
2016-May-21 08:32N 43°24' E 004°60'0 0.0
2016-May-21 07:32N 43°24' E 004°60'0 0.0
2016-May-21 06:32N 43°24' E 004°60'0 0.0
2016-May-21 05:32N 43°24' E 004°60'0 0.0
2016-May-21 04:32N 43°24' E 004°60'0 0.0
2016-May-21 03:32N 43°24' E 004°60'0 0.0
2016-May-21 02:32N 43°24' E 004°60'0 0.0
2016-May-21 01:32N 43°24' E 004°60'0 0.0
2016-May-21 00:32N 43°24' E 004°60'0 0.0
2016-May-20 23:32N 43°24' E 004°60'0 0.0
2016-May-20 22:31N 43°24' E 004°60'0 0.0
2016-May-20 21:19N 43°24' E 004°60'0 0.0
2016-May-20 20:31N 43°24' E 004°60'0 0.0
2016-May-20 19:31N 43°24' E 004°60'0 0.0
2016-May-20 18:31N 43°24' E 004°60'0 0.0
2016-May-20 17:31N 43°24' E 004°60'0 0.0
2016-May-20 16:31N 43°24' E 004°60'0 0.0
2016-May-20 15:31N 43°24' E 004°60'0 0.0
2016-May-20 14:31N 43°24' E 004°60'0 0.0
2016-May-20 13:31N 43°24' E 004°60'0 0.0
2016-May-20 12:33N 43°24' E 004°60'7 7.0
2016-May-20 11:33N 43°18' E 005°03'9 8.5
2016-May-20 10:33N 43°13' E 005°13'32 7.1
2016-May-20 06:05N 43°06' E 005°55'1 0.9
2016-May-20 04:32N 43°07' E 005°55'0 0.0
2016-May-20 03:32N 43°07' E 005°55'0 0.0
2016-May-20 02:32N 43°07' E 005°55'0 0.0
2016-May-20 01:32N 43°07' E 005°55'0 0.0
2016-May-20 00:32N 43°07' E 005°55'0 0.0
2016-May-19 23:32N 43°07' E 005°55'0 0.0
2016-May-19 22:32N 43°07' E 005°55'0 0.0
2016-May-19 21:32N 43°07' E 005°55'0 0.0
2016-May-19 20:33N 43°07' E 005°55'0 0.0
2016-May-19 19:32N 43°07' E 005°55'0 0.0
2016-May-19 18:29N 43°07' E 005°55'0 0.0
2016-May-19 17:32N 43°07' E 005°55'0 0.0
2016-May-19 16:29N 43°07' E 005°55'0 0.0
2016-May-19 15:28N 43°07' E 005°55'0 0.0
2016-May-19 14:31N 43°07' E 005°55'0 0.0
2016-May-19 13:22N 43°07' E 005°55'0 0.0
2016-May-19 12:28N 43°07' E 005°55'0 0.0
2016-May-19 11:28N 43°07' E 005°55'0 0.0
2016-May-19 10:16N 43°07' E 005°55'0 0.5
2016-May-19 09:33N 43°07' E 005°55'28 6.9
2016-May-19 05:33N 43°12' E 005°18'1110.8
2016-May-19 04:32N 43°17' E 005°04'8 8.3
2016-May-19 03:33N 43°24' E 004°60'0 0.0
2016-May-19 02:33N 43°24' E 004°60'0 0.0
2016-May-19 01:33N 43°24' E 004°60'0 0.0
2016-May-19 00:30N 43°24' E 004°60'0 0.0
2016-May-18 23:33N 43°24' E 004°60'0 0.0
2016-May-18 22:33N 43°24' E 004°60'0 0.0
2016-May-18 21:33N 43°24' E 004°60'0 0.0
2016-May-18 20:30N 43°24' E 004°60'0 0.0
2016-May-18 19:32N 43°24' E 004°60'0 0.0
2016-May-18 18:32N 43°24' E 004°60'0 0.0
2016-May-18 17:32N 43°24' E 004°60'0 0.0
2016-May-18 16:32N 43°24' E 004°60'0 0.0
2016-May-18 15:32N 43°24' E 004°60'0 0.0
2016-May-18 14:33N 43°24' E 004°60'1 0.5
2016-May-18 13:04N 43°24' E 004°59'0 0.0
2016-May-18 12:31N 43°24' E 004°59'0 0.0
2016-May-18 11:31N 43°24' E 004°59'0 0.0
2016-May-18 10:31N 43°24' E 004°59'0 0.0
2016-May-18 09:31N 43°24' E 004°59'0 0.0
2016-May-18 08:31N 43°24' E 004°59'0 0.0
2016-May-18 07:31N 43°24' E 004°59'0 0.0
2016-May-18 06:31N 43°24' E 004°59'0 0.0
2016-May-18 05:31N 43°24' E 004°59'  
Track history (hours):
 
Tides and Currents Weather Stations Pressure Air Temp Water Temp Dewpoint Dewpoint Depression Visibility Wind Speed Wind Dir Waves Ship Positions

Shana Des Slops

Last reported at 2016-May-28 05:16 UTC. Time now 2016-May-28 08:00 UTC.
Position N 43°14' E 004°30'.

Length 47 m; draft 3.2 m.

Type: Ship. MMSI: 228003800.

Date/timePositionNaut miles runAvg speedWind from/ knotsBaromVisibWave heightAir tempDewpointWater temp
2016-May-28 05:16N 43°14' E 004°30'16 9.3
2016-May-28 03:32N 43°19' E 004°52'8 8.3
2016-May-28 02:33N 43°24' E 004°60'0 0.0
2016-May-28 01:31N 43°24' E 004°60'0 0.0
2016-May-28 00:31N 43°24' E 004°60'0 0.0
2016-May-27 23:31N 43°24' E 004°60'0 0.0
2016-May-27 22:31N 43°24' E 004°60'0 0.0
2016-May-27 21:31N 43°24' E 004°60'0 0.0
2016-May-27 20:32N 43°24' E 004°60'0 0.0
2016-May-27 19:31N 43°24' E 004°60'0 0.0
2016-May-27 18:31N 43°24' E 004°60'0 0.0
2016-May-27 17:31N 43°24' E 004°60'0 0.0
2016-May-27 16:31N 43°24' E 004°60'0 0.0
2016-May-27 15:31N 43°24' E 004°60'0 0.0
2016-May-27 14:31N 43°24' E 004°60'0 0.0
2016-May-27 13:31N 43°24' E 004°60'2 2.4
2016-May-27 12:34N 43°24' E 004°57'0 0.0
2016-May-27 11:33N 43°24' E 004°57'2 1.5
2016-May-27 10:33N 43°24' E 004°59'1 1.1
2016-May-27 09:32N 43°24' E 004°60'0 0.0
2016-May-27 08:32N 43°24' E 004°60'0 0.0
2016-May-27 07:32N 43°24' E 004°60'0 0.0
2016-May-27 06:32N 43°24' E 004°60'0 0.0
2016-May-27 05:31N 43°24' E 004°60'0 0.0
2016-May-27 04:31N 43°24' E 004°60'0 0.0
2016-May-27 03:31N 43°24' E 004°60'0 0.0
2016-May-27 02:31N 43°24' E 004°60'0 0.0
2016-May-27 01:31N 43°24' E 004°60'0 0.0
2016-May-27 00:31N 43°24' E 004°60'0 0.0
2016-May-26 23:31N 43°24' E 004°60'0 0.0
2016-May-26 22:31N 43°24' E 004°60'0 0.0
2016-May-26 21:31N 43°24' E 004°60'0 0.0
2016-May-26 20:31N 43°24' E 004°60'0 0.0
2016-May-26 19:31N 43°24' E 004°60'0 0.0
2016-May-26 18:31N 43°24' E 004°60'0 0.0
2016-May-26 17:28N 43°24' E 004°60'0 0.0
2016-May-26 16:31N 43°24' E 004°60'0 0.0
2016-May-26 15:31N 43°24' E 004°60'0 0.0
2016-May-26 14:31N 43°24' E 004°60'0 0.0
2016-May-26 13:31N 43°24' E 004°60'0 0.0
2016-May-26 12:31N 43°24' E 004°60'0 0.0
2016-May-26 11:31N 43°24' E 004°60'0 0.0
2016-May-26 10:31N 43°24' E 004°60'0 0.0
2016-May-26 09:31N 43°24' E 004°60'0 0.0
2016-May-26 08:31N 43°24' E 004°60'0 0.0
2016-May-26 07:31N 43°24' E 004°60'0 0.0
2016-May-26 06:31N 43°24' E 004°60'0 0.0
2016-May-26 05:31N 43°24' E 004°60'0 0.0
2016-May-26 04:31N 43°24' E 004°60'0 0.0
2016-May-26 03:31N 43°24' E 004°60'0 0.0
2016-May-26 02:31N 43°24' E 004°60'0 0.0
2016-May-26 01:31N 43°24' E 004°60'0 0.0
2016-May-26 00:31N 43°24' E 004°60'0 0.0
2016-May-25 23:31N 43°24' E 004°60'0 0.0
2016-May-25 22:31N 43°24' E 004°60'0 0.0
2016-May-25 21:28N 43°24' E 004°60'0 0.0
2016-May-25 20:28N 43°24' E 004°60'0 0.0
2016-May-25 19:28N 43°24' E 004°60'0 0.0
2016-May-25 18:28N 43°24' E 004°60'0 0.0
2016-May-25 17:28N 43°24' E 004°60'0 0.0
2016-May-25 16:28N 43°24' E 004°60'0 0.0
2016-May-25 15:31N 43°24' E 004°60'0 0.0
2016-May-25 14:31N 43°24' E 004°60'1 0.7
2016-May-25 13:33N 43°24' E 004°59'8 7.8
2016-May-25 12:33N 43°17' E 005°05'5 5.5
2016-May-25 11:33N 43°14' E 005°11'2 2.4
2016-May-25 10:33N 43°14' E 005°08'9 8.7
2016-May-25 09:33N 43°20' E 004°59'4 3.8
2016-May-25 08:32N 43°24' E 004°60'0 0.0
2016-May-25 07:32N 43°24' E 004°60'0 0.0
2016-May-25 06:32N 43°24' E 004°60'0 0.0
2016-May-25 05:32N 43°24' E 004°60'0 0.0
2016-May-25 04:32N 43°24' E 004°60'0 0.0
2016-May-25 03:32N 43°24' E 004°60'0 0.0
2016-May-25 02:32N 43°24' E 004°60'0 0.0
2016-May-25 01:32N 43°24' E 004°60'0 0.0
2016-May-25 00:32N 43°24' E 004°60'0 0.0
2016-May-24 23:29N 43°24' E 004°60'0 0.0
2016-May-24 22:29N 43°24' E 004°60'0 0.0
2016-May-24 21:32N 43°24' E 004°60'0 0.0
2016-May-24 20:32N 43°24' E 004°60'0 0.0
2016-May-24 19:32N 43°24' E 004°60'0 0.0
2016-May-24 18:32N 43°24' E 004°60'0 0.0
2016-May-24 17:32N 43°24' E 004°60'0 0.0
2016-May-24 16:32N 43°24' E 004°60'0 0.0
2016-May-24 15:32N 43°24' E 004°60'0 0.0
2016-May-24 14:32N 43°24' E 004°60'0 0.0
2016-May-24 13:32N 43°24' E 004°60'0 0.0
2016-May-24 12:32N 43°24' E 004°60'0 0.0
2016-May-24 11:32N 43°24' E 004°60'2 2.2
2016-May-24 10:33N 43°24' E 004°57'0 0.0
2016-May-24 09:33N 43°24' E 004°57'5 1.8
2016-May-24 06:33N 43°26' E 004°50'7 7.0
2016-May-24 05:33N 43°24' E 004°59'1 0.7
2016-May-24 04:31N 43°24' E 004°60'0 0.0
2016-May-24 03:31N 43°24' E 004°60'0 0.0
2016-May-24 02:31N 43°24' E 004°60'0 0.0
2016-May-24 01:31N 43°24' E 004°60'0 0.0
2016-May-24 00:31N 43°24' E 004°60'0 0.0
2016-May-23 23:27N 43°24' E 004°60'0 0.0
2016-May-23 22:31N 43°24' E 004°60'0 0.0
2016-May-23 21:31N 43°24' E 004°60'0 0.0
2016-May-23 20:31N 43°24' E 004°60'0 0.0
2016-May-23 19:33N 43°24' E 004°60'0 0.0
2016-May-23 18:33N 43°24' E 004°60'0 0.0
2016-May-23 17:33N 43°24' E 004°60'0 0.0
2016-May-23 16:33N 43°24' E 004°60'0 0.0
2016-May-23 15:33N 43°24' E 004°60'0 0.0
2016-May-23 14:33N 43°24' E 004°60'0 0.0
2016-May-23 13:33N 43°24' E 004°60'0 0.0
2016-May-23 12:33N 43°24' E 004°60'0 0.0
2016-May-23 11:33N 43°24' E 004°60'0 0.0
2016-May-23 10:33N 43°24' E 004°60'0 0.0
2016-May-23 09:32N 43°24' E 004°60'0 0.0
2016-May-23 08:33N 43°24' E 004°60'0 0.0
2016-May-23 07:32N 43°24' E 004°60'0 0.0
2016-May-23 06:31N 43°24' E 004°60'0 0.0
2016-May-23 05:31N 43°24' E 004°60'0 0.0
2016-May-23 04:32N 43°24' E 004°60'0 0.0
2016-May-23 03:32N 43°24' E 004°60'0 0.0
2016-May-23 02:32N 43°24' E 004°60'0 0.0
2016-May-23 01:32N 43°24' E 004°60'0 0.0
2016-May-23 00:32N 43°24' E 004°60'0 0.0
2016-May-22 23:32N 43°24' E 004°60'0 0.0
2016-May-22 22:32N 43°24' E 004°60'0 0.0
2016-May-22 21:32N 43°24' E 004°60'0 0.0
2016-May-22 20:32N 43°24' E 004°60'0 0.0
2016-May-22 19:32N 43°24' E 004°60'0 0.0
2016-May-22 18:32N 43°24' E 004°60'0 0.0
2016-May-22 17:32N 43°24' E 004°60'0 0.0
2016-May-22 16:32N 43°24' E 004°60'0 0.0
2016-May-22 15:32N 43°24' E 004°60'0 0.0
2016-May-22 14:32N 43°24' E 004°60'0 0.0
2016-May-22 13:32N 43°24' E 004°60'0 0.0
2016-May-22 12:32N 43°24' E 004°60'0 0.0
2016-May-22 11:32N 43°24' E 004°60'0 0.0
2016-May-22 10:32N 43°24' E 004°60'0 0.0
2016-May-22 09:32N 43°24' E 004°60'0 0.0
2016-May-22 08:32N 43°24' E 004°60'1 1.4
2016-May-22 07:34N 43°24' E 004°58'4 1.0
2016-May-22 03:27N 43°25' E 004°53'5 5.5
2016-May-22 02:33N 43°24' E 004°60'0 0.0
2016-May-22 01:33N 43°24' E 004°60'0 0.0
2016-May-22 00:30N 43°24' E 004°60'0 0.0
2016-May-21 23:27N 43°24' E 004°60'0 0.0
2016-May-21 22:33N 43°24' E 004°60'0 0.0
2016-May-21 21:33N 43°24' E 004°60'0 0.0
2016-May-21 20:33N 43°24' E 004°60'0 0.0
2016-May-21 19:33N 43°24' E 004°60'0 0.0
2016-May-21 18:33N 43°24' E 004°60'0 0.0
2016-May-21 17:33N 43°24' E 004°60'0 0.0
2016-May-21 16:33N 43°24' E 004°60'0 0.0
2016-May-21 15:33N 43°24' E 004°60'0 0.0
2016-May-21 14:21N 43°24' E 004°60'0 0.0
2016-May-21 13:33N 43°24' E 004°60'0 0.0
2016-May-21 12:32N 43°24' E 004°60'0 0.0
2016-May-21 11:32N 43°24' E 004°60'0 0.0
2016-May-21 10:32N 43°24' E 004°60'0 0.0
2016-May-21 09:29N 43°24' E 004°60'0 0.0
2016-May-21 08:32N 43°24' E 004°60'0 0.0
2016-May-21 07:32N 43°24' E 004°60'0 0.0
2016-May-21 06:32N 43°24' E 004°60'0 0.0
2016-May-21 05:32N 43°24' E 004°60'0 0.0
2016-May-21 04:32N 43°24' E 004°60'0 0.0
2016-May-21 03:32N 43°24' E 004°60'0 0.0
2016-May-21 02:32N 43°24' E 004°60'0 0.0
2016-May-21 01:32N 43°24' E 004°60'0 0.0
2016-May-21 00:32N 43°24' E 004°60'0 0.0
2016-May-20 23:32N 43°24' E 004°60'0 0.0
2016-May-20 22:31N 43°24' E 004°60'0 0.0
2016-May-20 21:19N 43°24' E 004°60'0 0.0
2016-May-20 20:31N 43°24' E 004°60'0 0.0
2016-May-20 19:31N 43°24' E 004°60'0 0.0
2016-May-20 18:31N 43°24' E 004°60'0 0.0
2016-May-20 17:31N 43°24' E 004°60'0 0.0
2016-May-20 16:31N 43°24' E 004°60'0 0.0
2016-May-20 15:31N 43°24' E 004°60'0 0.0
2016-May-20 14:31N 43°24' E 004°60'0 0.0
2016-May-20 13:31N 43°24' E 004°60'0 0.0
2016-May-20 12:33N 43°24' E 004°60'7 7.0
2016-May-20 11:33N 43°18' E 005°03'9 8.5
2016-May-20 10:33N 43°13' E 005°13'32 7.1
2016-May-20 06:05N 43°06' E 005°55'1 0.9
2016-May-20 04:32N 43°07' E 005°55'0 0.0
2016-May-20 03:32N 43°07' E 005°55'0 0.0
2016-May-20 02:32N 43°07' E 005°55'0 0.0
2016-May-20 01:32N 43°07' E 005°55'0 0.0
2016-May-20 00:32N 43°07' E 005°55'0 0.0
2016-May-19 23:32N 43°07' E 005°55'0 0.0
2016-May-19 22:32N 43°07' E 005°55'0 0.0
2016-May-19 21:32N 43°07' E 005°55'0 0.0
2016-May-19 20:33N 43°07' E 005°55'0 0.0
2016-May-19 19:32N 43°07' E 005°55'0 0.0
2016-May-19 18:29N 43°07' E 005°55'0 0.0
2016-May-19 17:32N 43°07' E 005°55'0 0.0
2016-May-19 16:29N 43°07' E 005°55'0 0.0
2016-May-19 15:28N 43°07' E 005°55'0 0.0
2016-May-19 14:31N 43°07' E 005°55'0 0.0
2016-May-19 13:22N 43°07' E 005°55'0 0.0
2016-May-19 12:28N 43°07' E 005°55'0 0.0
2016-May-19 11:28N 43°07' E 005°55'0 0.0
2016-May-19 10:16N 43°07' E 005°55'0 0.5
2016-May-19 09:33N 43°07' E 005°55'28 6.9
2016-May-19 05:33N 43°12' E 005°18'1110.8
2016-May-19 04:32N 43°17' E 005°04'8 8.3
2016-May-19 03:33N 43°24' E 004°60'0 0.0
2016-May-19 02:33N 43°24' E 004°60'0 0.0
2016-May-19 01:33N 43°24' E 004°60'0 0.0
2016-May-19 00:30N 43°24' E 004°60'0 0.0
2016-May-18 23:33N 43°24' E 004°60'0 0.0
2016-May-18 22:33N 43°24' E 004°60'0 0.0
2016-May-18 21:33N 43°24' E 004°60'0 0.0
2016-May-18 20:30N 43°24' E 004°60'0 0.0
2016-May-18 19:32N 43°24' E 004°60'0 0.0
2016-May-18 18:32N 43°24' E 004°60'0 0.0
2016-May-18 17:32N 43°24' E 004°60'0 0.0
2016-May-18 16:32N 43°24' E 004°60'0 0.0
2016-May-18 15:32N 43°24' E 004°60'0 0.0
2016-May-18 14:33N 43°24' E 004°60'1 0.5
2016-May-18 13:04N 43°24' E 004°59'0 0.0
2016-May-18 12:31N 43°24' E 004°59'0 0.0
2016-May-18 11:31N 43°24' E 004°59'0 0.0
2016-May-18 10:31N 43°24' E 004°59'0 0.0
2016-May-18 09:31N 43°24' E 004°59'0 0.0
2016-May-18 08:31N 43°24' E 004°59'0 0.0
2016-May-18 07:31N 43°24' E 004°59'0 0.0
2016-May-18 06:31N 43°24' E 004°59'0 0.0
2016-May-18 05:31N 43°24' E 004°59'  

Dump ship's entire track history